Time;durP1;ratioP1;P1;durP2;ratioP2;P2;SDS_P1;SDS_P2;PMS_P1;PMS_P2;Temp;Humidity;BMP_temperature;BMP_pressure;BME280_temperature;BME280_humidity;BME280_pressure;Samples;Min_cycle;Max_cycle;Signal;HPM_P1;HPM_P2
2022/07/20 00:01:18;;;;;;;3.37;2.33;;;;;;;25.65;38.03;100826.81;5075773;28;20627;-79
2022/07/20 00:03:45;;;;;;;3.70;2.57;;;;;;;25.65;38.81;100823.28;5075912;28;20209;-79
2022/07/20 00:06:12;;;;;;;3.30;2.17;;;;;;;25.63;38.72;100811.84;5075549;28;20204;-79
2022/07/20 00:11:23;;;;;;;4.83;2.07;;;;;;;25.49;39.39;100787.03;5075621;28;20211;-78
2022/07/20 00:13:53;;;;;;;5.70;2.37;;;;;;;25.42;39.35;100780.44;5075629;28;20665;-79
2022/07/20 00:16:20;;;;;;;3.23;2.17;;;;;;;25.34;39.90;100775.69;5075330;28;20212;-79
2022/07/20 00:18:46;;;;;;;2.33;1.97;;;;;;;25.28;40.27;100775.31;5075205;28;20737;-79
2022/07/20 00:21:13;;;;;;;3.50;2.07;;;;;;;25.22;39.52;100768.59;5076058;28;20212;-79
2022/07/20 00:23:40;;;;;;;2.20;2.00;;;;;;;25.19;38.80;100784.81;5076105;28;20205;-79
2022/07/20 00:26:06;;;;;;;2.63;2.23;;;;;;;25.16;38.88;100788.56;5075610;28;20254;-79
2022/07/20 00:28:33;;;;;;;3.30;2.10;;;;;;;25.13;39.49;100804.84;5076192;28;20251;-79
2022/07/20 00:31:01;;;;;;;6.53;2.20;;;;;;;25.10;38.89;100804.22;5075871;28;20204;-78
2022/07/20 00:33:27;;;;;;;2.87;2.27;;;;;;;25.11;39.50;100797.88;5075769;28;20209;-79
2022/07/20 00:35:54;;;;;;;3.33;2.13;;;;;;;25.05;39.11;100795.69;5075862;28;20262;-79
2022/07/20 00:38:20;;;;;;;2.90;1.90;;;;;;;25.01;39.33;100788.84;5075112;28;20256;-78
2022/07/20 00:40:47;;;;;;;2.50;2.30;;;;;;;24.92;39.65;100787.72;5074957;28;20255;-79
2022/07/20 00:43:13;;;;;;;8.47;2.37;;;;;;;24.86;39.78;100780.19;5075540;28;20208;-78
2022/07/20 00:45:40;;;;;;;2.97;1.90;;;;;;;24.75;40.69;100772.94;5074923;28;20209;-79
2022/07/20 00:48:08;;;;;;;2.47;2.27;;;;;;;24.75;41.08;100760.44;5074536;28;20217;-79
2022/07/20 00:50:34;;;;;;;2.63;2.40;;;;;;;24.70;40.53;100746.59;5074953;28;20727;-80
2022/07/20 00:53:01;;;;;;;2.50;2.00;;;;;;;24.54;40.97;100746.00;5075167;28;20237;-79
2022/07/20 00:55:28;;;;;;;3.10;2.20;;;;;;;24.57;40.90;100735.94;5074982;28;20732;-77
2022/07/20 00:57:54;;;;;;;4.00;2.40;;;;;;;24.57;40.92;100746.63;5074675;28;20675;-79
2022/07/20 01:00:21;;;;;;;3.03;1.90;;;;;;;24.54;40.61;100760.19;5074585;28;20270;-78
2022/07/20 01:02:48;;;;;;;6.07;2.00;;;;;;;24.58;40.59;100756.34;5074194;28;20235;-77
2022/07/20 01:05:15;;;;;;;2.00;1.90;;;;;;;24.59;40.95;100754.53;5075107;28;20208;-79
2022/07/20 01:07:42;;;;;;;3.30;2.13;;;;;;;24.61;40.06;100754.41;5075202;28;20258;-79
2022/07/20 01:10:09;;;;;;;3.90;2.30;;;;;;;24.63;40.40;100750.66;5074547;28;20714;-79
2022/07/20 01:12:37;;;;;;;2.10;1.90;;;;;;;24.61;40.35;100751.75;5073713;28;20213;-78
2022/07/20 01:15:05;;;;;;;6.13;2.23;;;;;;;24.60;40.70;100758.03;5074076;28;20197;-78
2022/07/20 01:17:31;;;;;;;2.23;1.80;;;;;;;24.58;40.23;100743.00;5074605;28;20211;-78
2022/07/20 01:19:57;;;;;;;5.10;2.20;;;;;;;24.54;38.60;100770.03;5074084;28;20714;-78
2022/07/20 01:22:25;;;;;;;3.80;2.53;;;;;;;24.49;38.98;100797.00;5074323;28;20205;-79
2022/07/20 01:24:52;;;;;;;2.77;1.90;;;;;;;24.54;39.57;100792.22;5074314;28;20205;-78
2022/07/20 01:27:18;;;;;;;2.87;1.83;;;;;;;24.55;38.79;100783.25;5074061;28;20200;-78
2022/07/20 01:29:45;;;;;;;3.80;2.37;;;;;;;24.54;38.42;100802.91;5074436;28;20217;-78
2022/07/20 01:32:11;;;;;;;2.73;2.53;;;;;;;24.48;38.74;100799.78;5074127;28;20236;-79
2022/07/20 01:34:37;;;;;;;2.87;2.47;;;;;;;24.44;38.90;100804.50;5073986;28;20208;-79
2022/07/20 01:37:04;;;;;;;2.37;2.17;;;;;;;24.42;38.84;100808.22;5073754;28;20285;-79
2022/07/20 01:39:32;;;;;;;4.57;2.63;;;;;;;24.43;39.14;100785.94;5073690;28;20286;-79
2022/07/20 01:41:58;;;;;;;3.20;2.00;;;;;;;24.32;39.07;100774.22;5073315;28;20209;-79
2022/07/20 01:44:24;;;;;;;2.17;2.00;;;;;;;24.23;40.08;100774.00;5073225;28;20655;-78
2022/07/20 01:46:52;;;;;;;5.10;2.30;;;;;;;24.16;40.43;100749.56;5072769;28;20212;-79
2022/07/20 01:49:20;;;;;;;2.87;2.07;;;;;;;24.13;40.96;100744.47;5073710;28;20228;-79
2022/07/20 01:51:46;;;;;;;5.57;2.17;;;;;;;24.07;41.07;100729.75;5073245;28;20262;-78
2022/07/20 01:54:13;;;;;;;2.40;2.20;;;;;;;24.04;41.58;100718.44;5073147;28;20205;-78
2022/07/20 01:56:42;;;;;;;2.17;1.93;;;;;;;24.05;41.85;100717.50;5072885;28;20269;-78
2022/07/20 01:59:09;;;;;;;2.73;2.33;;;;;;;23.97;41.87;100712.69;5073244;28;20283;-78
2022/07/20 02:01:35;;;;;;;3.73;2.40;;;;;;;24.01;42.47;100706.19;5073086;28;20208;-79
2022/07/20 02:04:02;;;;;;;3.53;2.10;;;;;;;24.01;42.09;100697.34;5072959;28;20274;-79
2022/07/20 02:06:28;;;;;;;3.03;2.30;;;;;;;24.04;42.19;100689.09;5072691;28;20245;-79
2022/07/20 02:08:54;;;;;;;2.70;2.00;;;;;;;24.04;42.01;100699.78;5072204;28;20220;-79
2022/07/20 02:11:21;;;;;;;4.13;2.30;;;;;;;23.93;41.20;100700.53;5072103;28;20197;-79
2022/07/20 02:13:49;;;;;;;3.13;2.33;;;;;;;23.92;41.44;100712.16;5052865;28;20197;-79
2022/07/20 02:16:15;;;;;;;2.20;2.00;;;;;;;23.93;41.10;100709.38;5052392;28;20258;-79
2022/07/20 02:18:42;;;;;;;5.07;2.60;;;;;;;23.98;41.30;100711.72;5052770;28;20275;-79
2022/07/20 02:21:08;;;;;;;4.07;2.37;;;;;;;23.98;41.30;100714.38;5052890;28;20205;-78
2022/07/20 02:23:35;;;;;;;5.20;2.60;;;;;;;23.93;40.71;100732.53;5052585;28;20210;-79
2022/07/20 02:26:01;;;;;;;3.60;2.50;;;;;;;23.92;40.84;100733.50;5052693;28;20259;-78
2022/07/20 02:28:28;;;;;;;3.73;2.40;;;;;;;23.91;41.39;100727.31;5052779;28;20229;-79
2022/07/20 02:30:55;;;;;;;2.60;2.40;;;;;;;23.94;41.13;100718.22;5052376;28;20254;-79
2022/07/20 02:33:22;;;;;;;2.83;2.40;;;;;;;23.93;40.45;100713.88;5052593;28;20294;-79
2022/07/20 02:35:48;;;;;;;2.30;2.10;;;;;;;23.91;40.19;100747.78;5052368;28;20206;-79
2022/07/20 02:38:15;;;;;;;2.70;2.50;;;;;;;23.88;40.93;100735.50;5052516;28;20227;-79
2022/07/20 02:40:41;;;;;;;4.40;2.20;;;;;;;23.93;41.48;100733.38;5063891;28;21541;-79
2022/07/20 02:43:08;;;;;;;7.20;2.60;;;;;;;23.95;41.28;100718.13;5072369;28;20250;-79
2022/07/20 02:45:34;;;;;;;3.60;2.57;;;;;;;23.91;40.48;100710.47;5071965;28;20205;-79
2022/07/20 02:48:03;;;;;;;2.77;2.53;;;;;;;23.88;40.57;100737.34;5071898;28;20213;-79
2022/07/20 02:50:30;;;;;;;4.17;2.50;;;;;;;23.81;41.09;100738.75;5072268;28;20236;-79
2022/07/20 02:52:57;;;;;;;2.50;2.10;;;;;;;23.77;40.94;100738.94;5072420;28;20208;-79
2022/07/20 02:55:24;;;;;;;2.63;2.23;;;;;;;23.81;41.22;100728.91;5071884;28;20259;-79
2022/07/20 02:57:50;;;;;;;4.10;2.23;;;;;;;23.81;41.44;100725.41;5072166;28;20338;-79
2022/07/20 03:00:17;;;;;;;5.57;2.43;;;;;;;23.80;41.21;100735.19;5071717;28;20228;-78
2022/07/20 03:02:43;;;;;;;4.00;2.50;;;;;;;23.83;41.15;100731.50;5071935;28;20220;-79
2022/07/20 03:05:11;;;;;;;3.13;2.00;;;;;;;23.81;41.27;100734.25;5071191;28;20209;-79
2022/07/20 03:07:37;;;;;;;4.67;2.97;;;;;;;23.83;41.73;100726.16;5071743;28;20205;-79
2022/07/20 03:10:05;;;;;;;3.40;2.73;;;;;;;23.80;40.89;100716.53;5072137;28;20217;-79
2022/07/20 03:12:31;;;;;;;3.53;2.50;;;;;;;23.82;41.81;100717.28;5071539;28;20749;-79
2022/07/20 03:14:57;;;;;;;2.87;2.53;;;;;;;23.78;40.90;100722.00;5071403;28;20209;-79
2022/07/20 03:17:24;;;;;;;5.47;2.90;;;;;;;23.76;41.12;100726.53;5071430;28;20282;-78
2022/07/20 03:19:50;;;;;;;4.30;2.70;;;;;;;23.70;41.42;100729.63;5071796;28;20233;-78
2022/07/20 03:22:18;;;;;;;2.60;2.40;;;;;;;23.65;40.73;100737.09;5075127;28;20743;-79
2022/07/20 03:24:45;;;;;;;2.50;2.30;;;;;;;23.63;41.96;100728.34;5075772;28;20282;-78
2022/07/20 03:27:11;;;;;;;2.57;2.37;;;;;;;23.58;42.32;100711.81;5075812;28;20326;-79
2022/07/20 03:29:38;;;;;;;2.57;2.37;;;;;;;23.50;42.58;100711.50;5075331;28;20221;-77
2022/07/20 03:32:05;;;;;;;3.67;2.67;;;;;;;23.40;43.10;100695.28;5075198;28;20670;-79
2022/07/20 03:34:32;;;;;;;3.17;2.70;;;;;;;23.29;43.07;100693.38;5075710;28;20212;-79
2022/07/20 03:36:58;;;;;;;2.87;2.47;;;;;;;23.26;43.63;100687.41;5075424;28;20213;-78
2022/07/20 03:39:26;;;;;;;2.60;2.40;;;;;;;23.15;43.76;100682.78;5075287;28;20225;-79
2022/07/20 03:41:52;;;;;;;2.67;2.30;;;;;;;23.05;44.32;100671.91;5075307;28;20215;-78
2022/07/20 03:44:19;;;;;;;3.00;2.50;;;;;;;22.98;44.29;100665.28;5075193;28;20589;-78
2022/07/20 03:46:45;;;;;;;4.53;2.43;;;;;;;22.92;44.52;100666.53;5074958;28;20217;-79
2022/07/20 03:49:11;;;;;;;2.67;2.43;;;;;;;22.88;44.66;100669.50;5075559;28;20228;-79
2022/07/20 03:51:38;;;;;;;3.80;2.73;;;;;;;22.62;43.87;100663.25;5074944;28;20220;-79
2022/07/20 03:54:05;;;;;;;3.77;2.67;;;;;;;21.89;42.06;100701.56;5075015;28;20240;-78
2022/07/20 03:56:33;;;;;;;4.80;2.73;;;;;;;21.90;43.47;100728.03;5075008;28;20215;-78
2022/07/20 03:59:00;;;;;;;3.03;2.50;;;;;;;21.87;43.54;100706.09;5075007;28;20259;-78
2022/07/20 04:01:26;;;;;;;3.53;2.47;;;;;;;21.59;43.00;100695.38;5073395;28;20267;-79
2022/07/20 04:03:53;;;;;;;3.53;2.93;;;;;;;21.74;44.89;100700.69;5074873;28;20197;-78
2022/07/20 04:06:19;;;;;;;4.13;2.63;;;;;;;21.97;45.15;100689.47;5074590;28;20230;-78
2022/07/20 04:08:48;;;;;;;3.43;2.50;;;;;;;22.12;43.96;100679.69;5074886;28;20290;-79
2022/07/20 04:11:14;;;;;;;3.00;2.67;;;;;;;22.28;44.42;100694.69;5075000;28;20214;-78
2022/07/20 04:13:42;;;;;;;3.40;3.10;;;;;;;22.42;45.01;100681.38;5074970;28;20201;-79
2022/07/20 04:16:08;;;;;;;3.00;2.70;;;;;;;22.51;45.62;100675.44;5074228;28;20240;-78
2022/07/20 04:18:35;;;;;;;3.70;2.67;;;;;;;22.57;46.29;100632.47;5074729;28;20227;-78
2022/07/20 04:21:01;;;;;;;2.50;2.30;;;;;;;22.62;46.60;100631.34;5074460;28;20232;-78
2022/07/20 04:23:28;;;;;;;2.93;2.70;;;;;;;22.57;47.12;100613.84;5074190;28;20209;-78
2022/07/20 04:25:54;;;;;;;3.63;2.93;;;;;;;22.56;47.90;100601.50;5074368;28;20204;-78
2022/07/20 04:28:21;;;;;;;3.47;2.47;;;;;;;22.56;47.79;100592.69;5074577;28;20282;-78
2022/07/20 04:30:48;;;;;;;5.37;2.47;;;;;;;22.59;48.19;100584.47;5073987;28;20678;-79
2022/07/20 04:33:15;;;;;;;3.00;2.80;;;;;;;22.62;48.81;100570.97;5073400;28;20197;-79
2022/07/20 04:35:41;;;;;;;5.10;2.63;;;;;;;22.60;49.17;100559.59;5073963;28;20201;-79
2022/07/20 04:38:08;;;;;;;2.77;2.57;;;;;;;22.64;48.52;100566.41;5074334;28;20209;-79
2022/07/20 04:40:34;;;;;;;3.40;2.70;;;;;;;22.68;48.93;100565.25;5074392;28;20290;-78
2022/07/20 04:43:00;;;;;;;2.23;2.13;;;;;;;22.68;48.69;100567.06;5073985;28;20680;-78
2022/07/20 04:45:27;;;;;;;3.83;2.63;;;;;;;22.72;49.13;100558.75;5074016;28;20270;-77
2022/07/20 04:47:55;;;;;;;2.47;2.27;;;;;;;22.73;49.00;100554.28;5075232;28;20209;-77
2022/07/20 04:50:21;;;;;;;3.17;2.47;;;;;;;22.75;48.99;100566.50;5075569;28;20612;-77
2022/07/20 04:52:47;;;;;;;3.17;2.23;;;;;;;22.80;48.49;100568.88;5075999;28;20258;-77
2022/07/20 04:55:14;;;;;;;2.67;2.47;;;;;;;22.87;48.07;100582.59;5076084;28;20205;-78
2022/07/20 04:57:40;;;;;;;2.57;2.37;;;;;;;22.92;48.03;100586.66;5075812;28;20212;-78
2022/07/20 05:00:08;;;;;;;2.70;2.50;;;;;;;22.98;48.44;100583.59;5075178;28;20847;-77
2022/07/20 05:02:34;;;;;;;3.73;3.23;;;;;;;23.02;48.79;100588.72;5075517;28;20200;-77
2022/07/20 05:05:02;;;;;;;2.77;2.47;;;;;;;23.04;48.90;100571.69;5074966;28;20274;-78
2022/07/20 05:07:29;;;;;;;2.93;2.73;;;;;;;23.07;49.30;100571.50;5075766;28;20208;-77
2022/07/20 05:09:55;;;;;;;4.70;2.80;;;;;;;23.14;49.01;100569.25;5075314;28;20225;-77
2022/07/20 05:12:21;;;;;;;3.33;2.40;;;;;;;23.16;48.90;100580.66;5074802;28;20208;-77
2022/07/20 05:14:48;;;;;;;3.30;3.00;;;;;;;23.12;48.56;100580.00;5074014;28;20212;-77
2022/07/20 05:17:15;;;;;;;2.70;2.50;;;;;;;23.06;48.47;100591.06;5073021;28;20204;-77
2022/07/20 05:19:41;;;;;;;4.03;2.57;;;;;;;23.08;48.99;100593.63;5073341;28;20699;-77
2022/07/20 05:22:09;;;;;;;2.57;2.37;;;;;;;23.11;48.67;100588.09;5073739;28;20211;-77
2022/07/20 05:24:36;;;;;;;3.10;2.80;;;;;;;23.16;47.99;100605.47;5073545;28;20200;-77
2022/07/20 05:27:02;;;;;;;3.20;2.90;;;;;;;23.25;47.78;100611.97;5074611;28;20724;-77
2022/07/20 05:29:29;;;;;;;5.27;2.40;;;;;;;23.25;48.00;100617.31;5075682;28;20625;-77
2022/07/20 05:31:55;;;;;;;3.20;2.90;;;;;;;23.23;47.31;100642.31;5074987;28;20193;-77
2022/07/20 05:34:21;;;;;;;2.60;2.40;;;;;;;23.27;47.81;100634.03;5073212;28;20293;-77
2022/07/20 05:36:48;;;;;;;2.70;2.50;;;;;;;23.30;48.35;100622.31;5070076;28;20205;-77
2022/07/20 05:39:16;;;;;;;3.13;2.93;;;;;;;23.36;48.86;100604.06;5073052;28;20220;-75
2022/07/20 05:41:42;;;;;;;3.90;2.70;;;;;;;23.40;47.31;100618.03;5072373;28;20804;-75
2022/07/20 05:44:08;;;;;;;3.07;2.77;;;;;;;23.49;48.16;100627.19;5072701;28;20280;-75
2022/07/20 05:46:35;;;;;;;3.23;2.50;;;;;;;23.59;48.67;100617.59;5071262;28;20759;-75
2022/07/20 05:49:01;;;;;;;4.43;2.77;;;;;;;23.72;50.25;100581.09;5072441;28;20266;-75
2022/07/20 05:51:28;;;;;;;3.53;2.87;;;;;;;23.84;50.32;100554.56;5069751;28;20193;-75
2022/07/20 05:53:54;;;;;;;4.93;3.37;;;;;;;23.95;49.76;100550.13;5072139;28;20609;-75
2022/07/20 05:56:22;;;;;;;12.33;3.87;;;;;;;24.11;49.40;100575.69;5072175;28;20196;-75
2022/07/20 05:58:48;;;;;;;4.00;2.90;;;;;;;24.25;49.62;100583.50;5072109;28;20217;-75
2022/07/20 06:01:15;;;;;;;3.47;2.73;;;;;;;24.35;49.45;100578.34;5071703;28;20244;-75
2022/07/20 06:03:42;;;;;;;8.83;3.33;;;;;;;24.38;49.19;100591.47;5072142;28;21651;-75
2022/07/20 06:06:08;;;;;;;5.30;3.13;;;;;;;24.47;47.64;100603.25;5069043;28;20223;-75
2022/07/20 06:08:36;;;;;;;3.00;2.70;;;;;;;24.61;47.17;100652.97;5071863;28;20217;-75
2022/07/20 06:11:02;;;;;;;3.37;3.10;;;;;;;24.69;46.98;100662.09;5071887;28;20298;-75
2022/07/20 06:13:30;;;;;;;3.37;2.97;;;;;;;24.77;47.44;100656.19;5072005;28;20201;-75
2022/07/20 06:15:57;;;;;;;3.70;3.40;;;;;;;24.89;46.63;100659.75;5071439;28;20201;-74
2022/07/20 06:18:23;;;;;;;4.03;3.57;;;;;;;24.93;46.16;100663.91;5071185;28;20221;-75
2022/07/20 06:20:50;;;;;;;6.67;3.30;;;;;;;25.03;46.13;100690.78;5072086;28;20220;-75
2022/07/20 06:23:16;;;;;;;5.07;3.43;;;;;;;25.10;46.34;100687.53;5071994;28;20201;-75
2022/07/20 06:25:42;;;;;;;5.43;3.67;;;;;;;25.18;45.06;100694.94;5071646;28;20209;-75
2022/07/20 06:28:09;;;;;;;3.63;3.27;;;;;;;25.29;44.76;100715.53;5071236;28;20201;-76
2022/07/20 06:30:37;;;;;;;7.63;3.50;;;;;;;25.41;44.30;100746.69;5071625;28;20613;-76
2022/07/20 06:33:03;;;;;;;3.43;3.13;;;;;;;25.51;44.84;100752.16;5071205;28;20614;-76
2022/07/20 06:35:30;;;;;;;4.77;3.63;;;;;;;25.62;45.34;100752.19;5071601;28;20200;-76
2022/07/20 06:37:56;;;;;;;4.43;3.33;;;;;;;25.83;44.18;100765.72;5071495;28;20253;-76
2022/07/20 06:40:23;;;;;;;3.57;3.30;;;;;;;26.09;40.32;100795.81;5071423;28;20205;-75
2022/07/20 06:42:49;;;;;;;3.87;3.37;;;;;;;26.57;36.90;100895.59;5071237;28;20246;-75
2022/07/20 06:45:15;;;;;;;7.73;3.37;;;;;;;26.89;38.73;100960.03;5071457;28;20238;-76
2022/07/20 06:47:43;;;;;;;3.50;3.20;;;;;;;27.17;36.02;100985.47;5071084;28;20232;-76
2022/07/20 06:50:10;;;;;;;4.03;3.27;;;;;;;27.37;36.54;100999.13;5069129;28;20212;-76
2022/07/20 06:52:36;;;;;;;3.20;2.97;;;;;;;27.51;34.84;100972.03;5072086;28;20201;-76
2022/07/20 06:55:03;;;;;;;3.40;3.13;;;;;;;27.74;34.54;101038.03;5070621;28;20246;-76
2022/07/20 06:57:30;;;;;;;7.43;3.60;;;;;;;28.00;34.11;101045.81;5071267;28;20200;-76
2022/07/20 06:59:56;;;;;;;3.93;3.50;;;;;;;28.07;34.39;101033.59;5071575;28;20303;-76
2022/07/20 07:02:22;;;;;;;3.23;2.70;;;;;;;28.22;33.91;101047.56;5071057;28;20240;-76
2022/07/20 07:04:50;;;;;;;4.50;3.43;;;;;;;28.35;34.48;101070.72;5070557;28;20222;-76
2022/07/20 07:07:17;;;;;;;6.80;3.53;;;;;;;28.43;33.27;101052.97;5071195;28;20659;-76
2022/07/20 07:09:43;;;;;;;4.17;3.30;;;;;;;28.73;32.58;101091.66;5071147;28;20229;-76
2022/07/20 07:12:10;;;;;;;3.60;3.00;;;;;;;28.78;32.87;101096.63;5071125;28;20239;-76
2022/07/20 07:14:36;;;;;;;3.77;3.33;;;;;;;28.91;33.12;101099.97;5071238;28;20246;-76
2022/07/20 07:17:03;;;;;;;5.90;3.70;;;;;;;29.17;31.91;101116.56;5069488;28;20208;-76
2022/07/20 07:19:29;;;;;;;4.20;3.80;;;;;;;29.29;32.64;101128.94;5070865;28;20224;-76
2022/07/20 07:21:57;;;;;;;9.50;3.47;;;;;;;29.31;32.64;101075.84;5070215;28;20220;-76
2022/07/20 07:24:23;;;;;;;3.80;3.40;;;;;;;29.52;32.09;101106.41;5071302;28;20200;-76
2022/07/20 07:26:50;;;;;;;3.47;3.20;;;;;;;29.55;32.84;101112.34;5070939;28;20548;-75
2022/07/20 07:29:19;;;;;;;3.70;3.40;;;;;;;29.74;32.14;101130.44;5071197;28;20638;-76
2022/07/20 07:31:46;;;;;;;4.70;3.17;;;;;;;29.78;32.12;101102.25;5070495;28;20220;-76
2022/07/20 07:34:12;;;;;;;3.60;3.20;;;;;;;29.81;33.67;101096.59;5071274;28;20223;-76
2022/07/20 07:36:38;;;;;;;3.20;2.93;;;;;;;29.87;32.63;101076.34;5070571;28;20209;-76
2022/07/20 07:39:06;;;;;;;5.63;3.30;;;;;;;30.06;31.50;101122.13;5071055;28;20221;-76
2022/07/20 07:41:35;;;;;;;3.67;3.37;;;;;;;30.06;33.53;101092.50;5071178;28;20221;-76
2022/07/20 07:44:02;;;;;;;4.17;3.70;;;;;;;30.06;33.70;101095.22;5070793;28;20189;-76
2022/07/20 07:46:28;;;;;;;3.93;3.17;;;;;;;30.12;32.85;101057.94;5067590;28;20201;-76
2022/07/20 07:48:55;;;;;;;5.80;3.80;;;;;;;30.27;33.42;101107.72;5070923;28;20274;-76
2022/07/20 07:51:21;;;;;;;3.30;3.10;;;;;;;30.44;31.18;101120.50;5070805;28;20196;-76
2022/07/20 07:53:48;;;;;;;3.37;3.17;;;;;;;30.53;31.56;101124.19;5070862;28;20255;-76
2022/07/20 07:56:16;;;;;;;3.23;2.90;;;;;;;30.68;31.19;101106.59;5070426;28;20205;-76
2022/07/20 07:58:42;;;;;;;3.53;3.23;;;;;;;30.69;33.87;101078.63;5070930;28;20282;-76
2022/07/20 08:01:09;;;;;;;3.50;3.10;;;;;;;30.80;30.82;101096.50;5067826;28;20229;-76
2022/07/20 08:03:35;;;;;;;3.57;3.30;;;;;;;30.81;31.01;101114.38;5070606;28;20250;-76
2022/07/20 08:06:04;;;;;;;3.37;2.80;;;;;;;31.02;31.03;101102.56;5070649;28;20193;-76
2022/07/20 08:08:31;;;;;;;4.87;3.50;;;;;;;31.16;31.22;101130.91;5070095;28;20752;-76
2022/07/20 08:10:58;;;;;;;3.60;3.40;;;;;;;31.21;30.59;101132.19;5074304;28;20623;-76
2022/07/20 08:13:26;;;;;;;3.83;3.20;;;;;;;31.16;30.83;101123.69;5074127;28;20666;-76
2022/07/20 08:15:52;;;;;;;3.57;3.30;;;;;;;31.16;29.98;101121.00;5073732;28;20666;-76
2022/07/20 08:18:19;;;;;;;4.23;3.50;;;;;;;31.39;28.90;101153.84;5073809;28;20278;-76
2022/07/20 08:20:45;;;;;;;4.03;3.73;;;;;;;31.60;29.10;101167.16;5074490;28;20200;-76
2022/07/20 08:23:12;;;;;;;3.60;3.30;;;;;;;31.74;29.77;101156.88;5074345;28;20205;-76
2022/07/20 08:25:38;;;;;;;3.77;3.03;;;;;;;31.72;29.96;101164.28;5074206;28;20675;-76
2022/07/20 08:28:13;;;;;;;7.80;3.90;;;;;;;31.82;29.65;101167.78;5074071;28;20216;-76
2022/07/20 08:30:44;;;;;;;4.73;3.97;;;;;;;31.91;28.75;101156.06;5074303;28;20208;-76
2022/07/20 08:33:10;;;;;;;3.90;3.50;;;;;;;32.02;29.31;101172.09;5074304;28;20197;-76
2022/07/20 08:35:37;;;;;;;4.33;3.23;;;;;;;31.95;30.18;101162.84;5074166;28;20218;-76
2022/07/20 08:38:04;;;;;;;4.00;3.40;;;;;;;31.93;29.48;101151.34;5074304;28;20330;-76
2022/07/20 08:40:31;;;;;;;3.57;3.07;;;;;;;31.97;29.85;101155.47;5073818;28;20244;-77
2022/07/20 08:42:58;;;;;;;5.57;3.73;;;;;;;32.11;29.05;101156.84;5073968;28;20567;-76
2022/07/20 08:45:25;;;;;;;5.97;3.77;;;;;;;32.17;29.21;101160.75;5073777;28;20200;-77
2022/07/20 08:47:54;;;;;;;3.33;3.10;;;;;;;32.22;28.27;101163.88;5073162;28;20208;-76
2022/07/20 08:50:25;;;;;;;3.30;3.10;;;;;;;32.23;29.80;101174.53;5074616;28;20577;-76
2022/07/20 08:52:53;;;;;;;3.87;3.20;;;;;;;32.27;27.85;101169.66;5075171;28;20200;-76
2022/07/20 08:55:20;;;;;;;3.50;3.20;;;;;;;32.45;28.72;101211.06;5075138;28;20240;-77
2022/07/20 08:57:47;;;;;;;6.73;3.43;;;;;;;32.54;27.09;101189.50;5075450;28;20200;-77
2022/07/20 09:00:17;;;;;;;4.43;3.30;;;;;;;32.50;28.00;101161.94;5075332;28;20224;-77
2022/07/20 09:02:50;;;;;;;3.57;3.37;;;;;;;32.47;27.63;101200.09;5074691;28;20312;-77
2022/07/20 09:05:22;;;;;;;3.60;3.30;;;;;;;32.45;27.25;101213.75;5074800;28;20262;-77
2022/07/20 09:07:50;;;;;;;5.33;3.37;;;;;;;32.44;26.65;101220.16;5075426;28;20282;-77
2022/07/20 09:10:19;;;;;;;4.43;2.93;;;;;;;32.52;27.97;101214.00;5075143;28;20298;-77
2022/07/20 09:12:53;;;;;;;3.90;3.13;;;;;;;32.65;25.99;101205.53;5075112;28;20674;-77
2022/07/20 09:15:28;;;;;;;4.10;3.77;;;;;;;32.97;26.04;101223.91;5074704;28;20244;-77
2022/07/20 09:18:22;;;;;;;3.60;3.20;;;;;;;33.03;26.54;101255.72;5074188;28;20204;-77
2022/07/20 09:20:53;;;;;;;3.40;3.10;;;;;;;33.02;26.75;101242.34;5019306;28;20267;-77
2022/07/20 09:23:23;;;;;;;4.03;3.20;;;;;;;32.97;27.87;101202.25;5054498;28;20233;-77
2022/07/20 09:25:52;;;;;;;4.03;3.40;;;;;;;32.97;28.01;101202.25;5054126;28;20201;-77
2022/07/20 09:28:19;;;;;;;3.90;3.37;;;;;;;33.05;28.07;101215.00;5054997;28;20251;-77
2022/07/20 09:30:57;;;;;;;3.60;3.30;;;;;;;33.17;25.69;101221.03;5055242;28;20671;-77
2022/07/20 09:33:26;;;;;;;3.63;3.23;;;;;;;33.20;27.04;101242.34;5054874;28;20274;-77
2022/07/20 09:35:54;;;;;;;3.57;3.27;;;;;;;33.24;25.39;101235.63;5055300;28;20215;-77
2022/07/20 09:38:23;;;;;;;6.43;3.63;;;;;;;33.33;26.01;101250.09;5054532;28;20593;-77
2022/07/20 09:40:50;;;;;;;3.67;3.30;;;;;;;33.39;24.01;101260.28;5054555;28;20210;-77
2022/07/20 09:43:27;;;;;;;3.70;3.37;;;;;;;33.45;25.28;101246.09;5055070;28;20256;-77
2022/07/20 09:45:55;;;;;;;3.80;3.43;;;;;;;33.46;25.35;101245.09;5055915;28;20255;-78
2022/07/20 09:48:24;;;;;;;3.60;3.23;;;;;;;33.60;24.52;101260.75;5074582;28;20781;-77
2022/07/20 09:50:51;;;;;;;3.30;3.10;;;;;;;33.61;24.70;101281.38;5055305;28;20205;-77
2022/07/20 09:53:19;;;;;;;4.97;3.50;;;;;;;33.66;25.66;101282.81;5054905;28;20576;-77
2022/07/20 09:55:45;;;;;;;3.47;3.17;;;;;;;33.77;24.94;101253.59;5054471;28;20212;-77
2022/07/20 09:58:12;;;;;;;3.50;3.30;;;;;;;33.77;25.38;101286.09;5054740;28;20205;-77
2022/07/20 10:00:38;;;;;;;3.60;3.40;;;;;;;33.83;25.79;101284.59;5054357;28;20733;-77
2022/07/20 10:03:06;;;;;;;4.43;3.70;;;;;;;33.85;24.42;101270.91;5054718;28;20714;-77
2022/07/20 10:05:35;;;;;;;5.73;4.30;;;;;;;33.99;25.22;101275.72;5054206;28;20296;-78
2022/07/20 10:08:04;;;;;;;6.00;3.67;;;;;;;33.96;25.69;101268.75;5053671;28;20225;-75
2022/07/20 10:10:33;;;;;;;4.83;3.53;;;;;;;33.99;26.13;101259.44;5052592;28;20213;-75
2022/07/20 10:13:01;;;;;;;3.37;3.17;;;;;;;34.06;25.66;101246.13;5052573;28;20201;-75
2022/07/20 10:15:44;;;;;;;4.07;3.67;;;;;;;34.16;25.58;101244.16;5051855;28;20247;-75
2022/07/20 10:18:13;;;;;;;4.53;4.03;;;;;;;34.20;24.36;101265.34;5072031;28;20374;-75
2022/07/20 10:20:39;;;;;;;3.47;3.27;;;;;;;34.32;26.70;101230.63;5072065;28;20258;-75
2022/07/20 10:23:26;;;;;;;4.00;3.70;;;;;;;34.40;27.34;101224.41;5072210;28;20220;-75
2022/07/20 10:25:55;;;;;;;4.23;3.93;;;;;;;34.47;25.42;101203.75;5071995;28;20204;-75
2022/07/20 10:28:28;;;;;;;3.97;3.67;;;;;;;34.49;25.17;101252.34;5078959;28;20271;-79
2022/07/20 10:30:57;;;;;;;4.40;4.00;;;;;;;34.56;23.82;101262.38;5072763;28;20745;-81
2022/07/20 10:33:24;;;;;;;4.10;3.80;;;;;;;34.61;25.90;101213.09;5078238;28;20200;-74
2022/07/20 10:35:52;;;;;;;3.60;3.30;;;;;;;34.74;25.08;101223.44;5071865;28;20209;-74
2022/07/20 10:38:20;;;;;;;4.63;3.40;;;;;;;34.84;24.57;101272.97;5071522;28;20730;-74
2022/07/20 10:44:30;;;;;;;4.50;4.10;;;;;;;34.79;23.68;101295.19;5072041;28;20587;-74
2022/07/20 10:46:56;;;;;;;4.07;3.77;;;;;;;34.89;24.06;101265.19;5071211;28;20212;-74
2022/07/20 10:50:02;;;;;;;4.07;3.77;;;;;;;34.90;24.30;101255.16;5071739;28;20298;-74
2022/07/20 10:52:31;;;;;;;3.63;3.33;;;;;;;34.91;24.71;101286.72;5071498;28;20208;-74
2022/07/20 10:54:58;;;;;;;3.97;3.67;;;;;;;34.93;24.29;101280.09;5071624;28;20265;-74
2022/07/20 10:57:27;;;;;;;4.20;3.80;;;;;;;34.95;23.43;101275.34;5071848;28;20283;-74
2022/07/20 11:00:12;;;;;;;4.37;3.90;;;;;;;35.00;23.78;101253.13;5071956;28;20372;-74
2022/07/20 11:02:38;;;;;;;4.13;3.73;;;;;;;35.03;24.25;101260.09;5071511;28;20229;-74
2022/07/20 11:05:06;;;;;;;4.30;3.90;;;;;;;35.12;24.83;101240.91;5071705;28;20208;-74
2022/07/20 11:07:35;;;;;;;4.07;3.77;;;;;;;35.17;23.26;101249.44;5071537;28;20209;-73
2022/07/20 11:10:20;;;;;;;4.20;3.90;;;;;;;35.23;23.03;101271.50;5071195;28;20665;-74
2022/07/20 11:12:56;;;;;;;4.20;3.90;;;;;;;35.32;22.34;101275.88;5071644;28;20200;-74
2022/07/20 11:15:23;;;;;;;4.43;3.90;;;;;;;35.39;22.50;101304.91;5071536;28;20217;-74
2022/07/20 11:17:49;;;;;;;4.97;4.00;;;;;;;35.51;23.54;101305.38;5070840;28;20201;-74
2022/07/20 11:20:17;;;;;;;5.97;3.73;;;;;;;35.64;22.99;101277.72;5071290;28;20247;-74
2022/07/20 11:22:43;;;;;;;4.47;3.90;;;;;;;35.72;22.36;101252.41;5071387;28;20220;-75
2022/07/20 11:25:10;;;;;;;5.33;3.90;;;;;;;35.87;22.19;101237.06;5063924;28;20247;-74
2022/07/20 11:27:36;;;;;;;4.30;3.90;;;;;;;36.06;24.30;101232.25;5062974;28;20204;-74
2022/07/20 11:30:06;;;;;;;4.20;3.73;;;;;;;36.30;21.91;101242.19;5071132;28;20220;-74
2022/07/20 11:32:33;;;;;;;5.37;4.00;;;;;;;36.47;22.30;101276.38;5062850;28;20226;-74